sensor_id;sensor_type;location;lat;lon;timestamp;pressure;altitude;pressure_sealevel;temperature;humidity
62634;BME280;48704;50.534;6.442;2022-07-23T00:01:30;95845.75;;;15.67;100.00
62634;BME280;48704;50.534;6.442;2022-07-23T00:03:56;95840.09;;;15.56;100.00
62634;BME280;48704;50.534;6.442;2022-07-23T00:06:23;95836.06;;;15.57;100.00
62634;BME280;48704;50.534;6.442;2022-07-23T00:08:49;95838.03;;;15.51;100.00
62634;BME280;48704;50.534;6.442;2022-07-23T00:11:15;95839.50;;;15.41;100.00
62634;BME280;48704;50.534;6.442;2022-07-23T00:13:41;95848.94;;;15.37;100.00
62634;BME280;48704;50.534;6.442;2022-07-23T00:16:07;95841.06;;;15.42;100.00
62634;BME280;48704;50.534;6.442;2022-07-23T00:18:33;95848.16;;;15.31;100.00
62634;BME280;48704;50.534;6.442;2022-07-23T00:20:58;95839.72;;;15.31;100.00
62634;BME280;48704;50.534;6.442;2022-07-23T00:23:25;95833.38;;;15.36;100.00
62634;BME280;48704;50.534;6.442;2022-07-23T00:25:52;95838.44;;;15.32;100.00
62634;BME280;48704;50.534;6.442;2022-07-23T00:28:18;95835.97;;;15.46;100.00
62634;BME280;48704;50.534;6.442;2022-07-23T00:30:44;95848.75;;;15.47;100.00
62634;BME280;48704;50.534;6.442;2022-07-23T00:33:10;95846.06;;;15.26;100.00
62634;BME280;48704;50.534;6.442;2022-07-23T00:35:38;95834.38;;;15.33;100.00
62634;BME280;48704;50.534;6.442;2022-07-23T00:38:07;95837.38;;;15.24;100.00
62634;BME280;48704;50.534;6.442;2022-07-23T00:40:35;95835.34;;;15.19;100.00
62634;BME280;48704;50.534;6.442;2022-07-23T00:43:01;95837.59;;;15.10;100.00
62634;BME280;48704;50.534;6.442;2022-07-23T00:45:27;95842.34;;;14.98;100.00
62634;BME280;48704;50.534;6.442;2022-07-23T00:47:53;95834.13;;;14.89;100.00
62634;BME280;48704;50.534;6.442;2022-07-23T00:50:19;95831.81;;;14.87;100.00
62634;BME280;48704;50.534;6.442;2022-07-23T00:52:45;95839.50;;;14.92;100.00
62634;BME280;48704;50.534;6.442;2022-07-23T00:55:11;95842.09;;;14.96;100.00
62634;BME280;48704;50.534;6.442;2022-07-23T00:57:39;95839.34;;;15.07;100.00
62634;BME280;48704;50.534;6.442;2022-07-23T01:00:07;95829.22;;;15.26;100.00
62634;BME280;48704;50.534;6.442;2022-07-23T01:02:34;95836.19;;;15.36;100.00
62634;BME280;48704;50.534;6.442;2022-07-23T01:04:59;95830.13;;;15.01;100.00
62634;BME280;48704;50.534;6.442;2022-07-23T01:07:25;95834.66;;;14.93;100.00
62634;BME280;48704;50.534;6.442;2022-07-23T01:09:51;95825.88;;;15.17;100.00
62634;BME280;48704;50.534;6.442;2022-07-23T01:12:18;95818.44;;;15.08;100.00
62634;BME280;48704;50.534;6.442;2022-07-23T01:14:44;95807.97;;;15.09;100.00
62634;BME280;48704;50.534;6.442;2022-07-23T01:17:09;95809.47;;;15.04;100.00
62634;BME280;48704;50.534;6.442;2022-07-23T01:19:35;95810.69;;;14.92;100.00
62634;BME280;48704;50.534;6.442;2022-07-23T01:22:02;95801.19;;;14.78;100.00
62634;BME280;48704;50.534;6.442;2022-07-23T01:24:29;95799.69;;;14.83;100.00
62634;BME280;48704;50.534;6.442;2022-07-23T01:26:55;95800.41;;;14.78;100.00
62634;BME280;48704;50.534;6.442;2022-07-23T01:29:21;95799.94;;;14.85;100.00
62634;BME280;48704;50.534;6.442;2022-07-23T01:31:47;95795.06;;;14.80;100.00
62634;BME280;48704;50.534;6.442;2022-07-23T01:34:13;95799.66;;;14.77;100.00
62634;BME280;48704;50.534;6.442;2022-07-23T01:36:39;95791.91;;;14.66;100.00
62634;BME280;48704;50.534;6.442;2022-07-23T01:39:06;95789.88;;;14.67;100.00
62634;BME280;48704;50.534;6.442;2022-07-23T01:41:33;95791.66;;;14.64;100.00
62634;BME280;48704;50.534;6.442;2022-07-23T01:43:59;95781.34;;;14.50;100.00
62634;BME280;48704;50.534;6.442;2022-07-23T01:46:24;95774.06;;;14.32;100.00
62634;BME280;48704;50.534;6.442;2022-07-23T01:48:50;95781.28;;;14.13;100.00
62634;BME280;48704;50.534;6.442;2022-07-23T01:51:15;95780.88;;;13.94;100.00
62634;BME280;48704;50.534;6.442;2022-07-23T01:53:41;95786.22;;;13.92;100.00
62634;BME280;48704;50.534;6.442;2022-07-23T01:56:07;95779.91;;;13.97;100.00
62634;BME280;48704;50.534;6.442;2022-07-23T01:58:33;95792.09;;;13.94;100.00
62634;BME280;48704;50.534;6.442;2022-07-23T02:00:58;95795.22;;;13.76;100.00
62634;BME280;48704;50.534;6.442;2022-07-23T02:03:24;95791.97;;;13.83;100.00
62634;BME280;48704;50.534;6.442;2022-07-23T02:05:50;95785.66;;;13.88;100.00
62634;BME280;48704;50.534;6.442;2022-07-23T02:08:16;95788.97;;;13.61;100.00
62634;BME280;48704;50.534;6.442;2022-07-23T02:10:42;95790.22;;;13.60;100.00
62634;BME280;48704;50.534;6.442;2022-07-23T02:13:08;95791.13;;;13.71;100.00
62634;BME280;48704;50.534;6.442;2022-07-23T02:15:34;95794.94;;;13.74;100.00
62634;BME280;48704;50.534;6.442;2022-07-23T02:18:00;95792.09;;;13.94;100.00
62634;BME280;48704;50.534;6.442;2022-07-23T02:20:26;95795.94;;;13.71;100.00
62634;BME280;48704;50.534;6.442;2022-07-23T02:22:51;95791.53;;;13.64;100.00
62634;BME280;48704;50.534;6.442;2022-07-23T02:25:17;95790.09;;;13.75;100.00
62634;BME280;48704;50.534;6.442;2022-07-23T02:27:43;95787.19;;;13.89;100.00
62634;BME280;48704;50.534;6.442;2022-07-23T02:30:10;95793.31;;;14.19;100.00
62634;BME280;48704;50.534;6.442;2022-07-23T02:32:36;95791.47;;;14.11;100.00
62634;BME280;48704;50.534;6.442;2022-07-23T02:35:03;95790.56;;;13.93;100.00
62634;BME280;48704;50.534;6.442;2022-07-23T02:37:29;95800.00;;;13.96;100.00
62634;BME280;48704;50.534;6.442;2022-07-23T02:39:55;95795.72;;;14.00;100.00
62634;BME280;48704;50.534;6.442;2022-07-23T02:42:21;95793.03;;;14.17;100.00
62634;BME280;48704;50.534;6.442;2022-07-23T02:44:46;95791.72;;;14.13;100.00
62634;BME280;48704;50.534;6.442;2022-07-23T02:47:12;95793.91;;;13.97;100.00
62634;BME280;48704;50.534;6.442;2022-07-23T02:49:38;95790.56;;;13.93;100.00
62634;BME280;48704;50.534;6.442;2022-07-23T02:52:04;95778.81;;;13.89;100.00
62634;BME280;48704;50.534;6.442;2022-07-23T02:54:29;95782.97;;;13.99;100.00
62634;BME280;48704;50.534;6.442;2022-07-23T02:56:55;95785.78;;;13.99;100.00
62634;BME280;48704;50.534;6.442;2022-07-23T02:59:21;95781.72;;;14.00;100.00
62634;BME280;48704;50.534;6.442;2022-07-23T03:01:46;95779.47;;;14.04;100.00
62634;BME280;48704;50.534;6.442;2022-07-23T03:04:12;95778.41;;;14.02;100.00
62634;BME280;48704;50.534;6.442;2022-07-23T03:06:38;95778.56;;;13.93;100.00
62634;BME280;48704;50.534;6.442;2022-07-23T03:09:06;95782.69;;;13.97;100.00
62634;BME280;48704;50.534;6.442;2022-07-23T03:11:31;95788.13;;;14.07;100.00
62634;BME280;48704;50.534;6.442;2022-07-23T03:13:57;95789.91;;;14.04;100.00
62634;BME280;48704;50.534;6.442;2022-07-23T03:16:23;95788.69;;;14.11;100.00
62634;BME280;48704;50.534;6.442;2022-07-23T03:18:48;95788.84;;;14.01;100.00
62634;BME280;48704;50.534;6.442;2022-07-23T03:21:14;95784.91;;;13.88;100.00
62634;BME280;48704;50.534;6.442;2022-07-23T03:23:40;95788.91;;;13.81;100.00
62634;BME280;48704;50.534;6.442;2022-07-23T03:26:05;95786.50;;;13.68;100.00
62634;BME280;48704;50.534;6.442;2022-07-23T03:28:31;95781.56;;;13.58;100.00
62634;BME280;48704;50.534;6.442;2022-07-23T03:30:57;95782.09;;;13.62;100.00
62634;BME280;48704;50.534;6.442;2022-07-23T03:33:23;95788.31;;;13.71;100.00
62634;BME280;48704;50.534;6.442;2022-07-23T03:35:49;95791.88;;;13.72;100.00
62634;BME280;48704;50.534;6.442;2022-07-23T03:38:15;95791.31;;;13.94;100.00
62634;BME280;48704;50.534;6.442;2022-07-23T03:40:41;95789.00;;;13.92;100.00
62634;BME280;48704;50.534;6.442;2022-07-23T03:43:07;95787.31;;;13.75;100.00
62634;BME280;48704;50.534;6.442;2022-07-23T03:45:33;95778.69;;;13.78;100.00
62634;BME280;48704;50.534;6.442;2022-07-23T03:47:59;95781.00;;;13.80;100.00
62634;BME280;48704;50.534;6.442;2022-07-23T03:50:25;95786.06;;;14.01;100.00
62634;BME280;48704;50.534;6.442;2022-07-23T03:52:51;95795.66;;;13.69;100.00
62634;BME280;48704;50.534;6.442;2022-07-23T03:55:16;95796.72;;;13.71;100.00
62634;BME280;48704;50.534;6.442;2022-07-23T03:57:42;95792.47;;;13.56;100.00
62634;BME280;48704;50.534;6.442;2022-07-23T04:00:09;95804.09;;;13.49;100.00
62634;BME280;48704;50.534;6.442;2022-07-23T04:02:38;95800.59;;;13.54;100.00
62634;BME280;48704;50.534;6.442;2022-07-23T04:05:04;95803.09;;;13.52;100.00
62634;BME280;48704;50.534;6.442;2022-07-23T04:07:31;95807.38;;;13.67;100.00
62634;BME280;48704;50.534;6.442;2022-07-23T04:09:56;95813.28;;;13.75;100.00
62634;BME280;48704;50.534;6.442;2022-07-23T04:12:22;95809.13;;;13.65;100.00
62634;BME280;48704;50.534;6.442;2022-07-23T04:14:48;95818.00;;;13.63;100.00
62634;BME280;48704;50.534;6.442;2022-07-23T04:17:14;95812.97;;;13.67;100.00
62634;BME280;48704;50.534;6.442;2022-07-23T04:19:40;95816.75;;;13.64;100.00
62634;BME280;48704;50.534;6.442;2022-07-23T04:22:10;95823.47;;;13.98;100.00
62634;BME280;48704;50.534;6.442;2022-07-23T04:24:36;95820.22;;;14.05;100.00
62634;BME280;48704;50.534;6.442;2022-07-23T04:27:02;95826.25;;;13.98;100.00
62634;BME280;48704;50.534;6.442;2022-07-23T04:29:28;95826.47;;;13.95;100.00
62634;BME280;48704;50.534;6.442;2022-07-23T04:31:54;95821.84;;;13.66;100.00
62634;BME280;48704;50.534;6.442;2022-07-23T04:34:20;95827.75;;;13.68;100.00
62634;BME280;48704;50.534;6.442;2022-07-23T04:36:46;95829.72;;;13.88;100.00
62634;BME280;48704;50.534;6.442;2022-07-23T04:39:11;95834.53;;;13.87;100.00
62634;BME280;48704;50.534;6.442;2022-07-23T04:41:37;95841.84;;;13.79;100.00
62634;BME280;48704;50.534;6.442;2022-07-23T04:44:03;95840.75;;;13.97;100.00
62634;BME280;48704;50.534;6.442;2022-07-23T04:46:29;95836.75;;;14.03;100.00
62634;BME280;48704;50.534;6.442;2022-07-23T04:48:55;95839.44;;;13.92;100.00
62634;BME280;48704;50.534;6.442;2022-07-23T04:51:20;95839.44;;;13.92;100.00
62634;BME280;48704;50.534;6.442;2022-07-23T04:53:46;95848.13;;;13.94;100.00
62634;BME280;48704;50.534;6.442;2022-07-23T04:56:11;95842.72;;;14.17;100.00
62634;BME280;48704;50.534;6.442;2022-07-23T04:58:37;95851.41;;;14.19;100.00
62634;BME280;48704;50.534;6.442;2022-07-23T05:01:03;95855.56;;;14.29;100.00
62634;BME280;48704;50.534;6.442;2022-07-23T05:03:29;95850.84;;;14.41;100.00
62634;BME280;48704;50.534;6.442;2022-07-23T05:05:55;95847.41;;;14.57;100.00
62634;BME280;48704;50.534;6.442;2022-07-23T05:08:20;95846.81;;;14.42;100.00
62634;BME280;48704;50.534;6.442;2022-07-23T05:10:46;95843.22;;;14.41;100.00
62634;BME280;48704;50.534;6.442;2022-07-23T05:13:14;95842.41;;;14.66;100.00
62634;BME280;48704;50.534;6.442;2022-07-23T05:15:41;95843.22;;;14.73;100.00
62634;BME280;48704;50.534;6.442;2022-07-23T05:18:06;95847.88;;;14.50;100.00
62634;BME280;48704;50.534;6.442;2022-07-23T05:20:32;95852.06;;;14.34;100.00
62634;BME280;48704;50.534;6.442;2022-07-23T05:22:58;95852.19;;;14.45;100.00
62634;BME280;48704;50.534;6.442;2022-07-23T05:25:23;95859.06;;;14.44;100.00
62634;BME280;48704;50.534;6.442;2022-07-23T05:27:49;95856.41;;;14.35;100.00
62634;BME280;48704;50.534;6.442;2022-07-23T05:30:15;95851.16;;;14.48;100.00
62634;BME280;48704;50.534;6.442;2022-07-23T05:32:40;95856.53;;;14.46;100.00
62634;BME280;48704;50.534;6.442;2022-07-23T05:35:07;95846.59;;;14.45;100.00
62634;BME280;48704;50.534;6.442;2022-07-23T05:37:32;95850.19;;;14.51;100.00
62634;BME280;48704;50.534;6.442;2022-07-23T05:40:06;95856.88;;;14.59;100.00
62634;BME280;48704;50.534;6.442;2022-07-23T05:42:34;95865.25;;;14.54;100.00
62634;BME280;48704;50.534;6.442;2022-07-23T05:45:00;95859.50;;;14.68;100.00
62634;BME280;48704;50.534;6.442;2022-07-23T05:47:25;95858.97;;;14.64;100.00
62634;BME280;48704;50.534;6.442;2022-07-23T05:49:51;95861.41;;;14.51;100.00
62634;BME280;48704;50.534;6.442;2022-07-23T05:52:17;95867.47;;;14.44;100.00
62634;BME280;48704;50.534;6.442;2022-07-23T05:54:42;95865.44;;;14.45;100.00
62634;BME280;48704;50.534;6.442;2022-07-23T05:57:08;95867.47;;;14.44;100.00
62634;BME280;48704;50.534;6.442;2022-07-23T05:59:33;95873.53;;;14.68;100.00
62634;BME280;48704;50.534;6.442;2022-07-23T06:01:59;95873.13;;;14.87;100.00
62634;BME280;48704;50.534;6.442;2022-07-23T06:04:25;95885.47;;;14.63;100.00
62634;BME280;48704;50.534;6.442;2022-07-23T06:06:51;95885.38;;;14.84;100.00
62634;BME280;48704;50.534;6.442;2022-07-23T06:09:16;95891.88;;;15.01;100.00
62634;BME280;48704;50.534;6.442;2022-07-23T06:11:42;95891.41;;;15.08;100.00
62634;BME280;48704;50.534;6.442;2022-07-23T06:14:07;95885.91;;;15.30;100.00
62634;BME280;48704;50.534;6.442;2022-07-23T06:16:33;95886.16;;;15.27;100.00
62634;BME280;48704;50.534;6.442;2022-07-23T06:18:58;95884.34;;;15.18;100.00
62634;BME280;48704;50.534;6.442;2022-07-23T06:21:24;95889.69;;;15.16;100.00
62634;BME280;48704;50.534;6.442;2022-07-23T06:23:49;95881.31;;;15.27;100.00
62634;BME280;48704;50.534;6.442;2022-07-23T06:26:15;95882.84;;;15.28;100.00
62634;BME280;48704;50.534;6.442;2022-07-23T06:28:40;95888.22;;;15.80;100.00
62634;BME280;48704;50.534;6.442;2022-07-23T06:31:06;95892.34;;;15.90;100.00
62634;BME280;48704;50.534;6.442;2022-07-23T06:33:32;95884.19;;;16.03;100.00
62634;BME280;48704;50.534;6.442;2022-07-23T06:35:58;95894.97;;;16.22;100.00
62634;BME280;48704;50.534;6.442;2022-07-23T06:38:24;95896.00;;;16.24;100.00
62634;BME280;48704;50.534;6.442;2022-07-23T06:40:50;95895.25;;;16.29;100.00
62634;BME280;48704;50.534;6.442;2022-07-23T06:43:16;95900.56;;;16.11;100.00
62634;BME280;48704;50.534;6.442;2022-07-23T06:45:41;95900.81;;;16.07;100.00
62634;BME280;48704;50.534;6.442;2022-07-23T06:48:07;95909.22;;;16.01;100.00
62634;BME280;48704;50.534;6.442;2022-07-23T06:50:33;95899.59;;;16.36;100.00
62634;BME280;48704;50.534;6.442;2022-07-23T06:52:59;95902.97;;;16.57;98.25
62634;BME280;48704;50.534;6.442;2022-07-23T06:55:26;95903.97;;;16.48;100.00
62634;BME280;48704;50.534;6.442;2022-07-23T06:57:51;95913.97;;;16.71;98.37
62634;BME280;48704;50.534;6.442;2022-07-23T07:00:18;95919.59;;;16.60;98.07
62634;BME280;48704;50.534;6.442;2022-07-23T07:02:43;95916.50;;;16.47;97.84
62634;BME280;48704;50.534;6.442;2022-07-23T07:05:09;95912.97;;;16.75;97.14
62634;BME280;48704;50.534;6.442;2022-07-23T07:07:34;95914.75;;;16.94;95.76
62634;BME280;48704;50.534;6.442;2022-07-23T07:10:01;95909.91;;;17.06;94.39
62634;BME280;48704;50.534;6.442;2022-07-23T07:12:27;95918.06;;;17.15;93.42
62634;BME280;48704;50.534;6.442;2022-07-23T07:14:53;95915.47;;;17.40;92.38
62634;BME280;48704;50.534;6.442;2022-07-23T07:17:18;95919.09;;;17.23;93.99
62634;BME280;48704;50.534;6.442;2022-07-23T07:19:44;95920.28;;;17.56;91.36
62634;BME280;48704;50.534;6.442;2022-07-23T07:22:10;95917.81;;;17.19;89.29
62634;BME280;48704;50.534;6.442;2022-07-23T07:24:35;95913.19;;;17.27;91.25
62634;BME280;48704;50.534;6.442;2022-07-23T07:27:01;95923.97;;;16.95;92.11
62634;BME280;48704;50.534;6.442;2022-07-23T07:29:26;95919.63;;;16.94;87.42
62634;BME280;48704;50.534;6.442;2022-07-23T07:31:54;95924.22;;;16.86;84.27
62634;BME280;48704;50.534;6.442;2022-07-23T07:34:20;95926.53;;;16.82;84.55
62634;BME280;48704;50.534;6.442;2022-07-23T07:36:45;95929.09;;;16.96;80.26
62634;BME280;48704;50.534;6.442;2022-07-23T07:39:11;95925.75;;;16.87;79.06
62634;BME280;48704;50.534;6.442;2022-07-23T07:41:36;95934.19;;;17.26;81.68
62634;BME280;48704;50.534;6.442;2022-07-23T07:44:02;95931.66;;;17.00;80.56
62634;BME280;48704;50.534;6.442;2022-07-23T07:46:28;95932.59;;;17.58;78.63
62634;BME280;48704;50.534;6.442;2022-07-23T07:48:53;95927.00;;;17.25;79.39
62634;BME280;48704;50.534;6.442;2022-07-23T07:51:19;95940.88;;;16.95;79.42
62634;BME280;48704;50.534;6.442;2022-07-23T07:53:45;95933.97;;;16.96;81.82
62634;BME280;48704;50.534;6.442;2022-07-23T07:56:10;95937.50;;;17.35;79.86
62634;BME280;48704;50.534;6.442;2022-07-23T07:58:36;95940.78;;;17.67;77.60
62634;BME280;48704;50.534;6.442;2022-07-23T08:01:02;95937.94;;;17.62;78.55
62634;BME280;48704;50.534;6.442;2022-07-23T08:03:28;95941.53;;;17.57;78.43
62634;BME280;48704;50.534;6.442;2022-07-23T08:05:54;95942.59;;;17.65;80.03
62634;BME280;48704;50.534;6.442;2022-07-23T08:08:20;95947.88;;;17.91;77.24
62634;BME280;48704;50.534;6.442;2022-07-23T08:10:46;95942.59;;;17.65;78.20
62634;BME280;48704;50.534;6.442;2022-07-23T08:13:13;95944.88;;;17.78;76.82
62634;BME280;48704;50.534;6.442;2022-07-23T08:15:40;95937.47;;;17.69;77.45
62634;BME280;48704;50.534;6.442;2022-07-23T08:18:05;95932.16;;;18.12;75.92
62634;BME280;48704;50.534;6.442;2022-07-23T08:20:31;95939.78;;;18.23;75.71
62634;BME280;48704;50.534;6.442;2022-07-23T08:22:58;95937.47;;;18.74;74.20
62634;BME280;48704;50.534;6.442;2022-07-23T08:25:33;95944.50;;;18.56;70.92
62634;BME280;48704;50.534;6.442;2022-07-23T08:28:00;95949.47;;;18.33;74.90
62634;BME280;48704;50.534;6.442;2022-07-23T08:30:29;95949.59;;;18.57;72.80
62634;BME280;48704;50.534;6.442;2022-07-23T08:33:03;95952.19;;;18.09;71.12
62634;BME280;48704;50.534;6.442;2022-07-23T08:35:38;95949.69;;;18.46;70.20
62634;BME280;48704;50.534;6.442;2022-07-23T08:38:07;95955.38;;;18.82;68.61
62634;BME280;48704;50.534;6.442;2022-07-23T08:40:36;95957.41;;;18.87;66.80
62634;BME280;48704;50.534;6.442;2022-07-23T08:43:07;95966.97;;;19.08;68.03
62634;BME280;48704;50.534;6.442;2022-07-23T08:45:39;95958.66;;;19.21;67.01
62634;BME280;48704;50.534;6.442;2022-07-23T08:48:08;95960.34;;;18.64;66.38
62634;BME280;48704;50.534;6.442;2022-07-23T08:50:36;95964.75;;;18.60;69.13
62634;BME280;48704;50.534;6.442;2022-07-23T08:53:05;95957.94;;;19.15;68.44
62634;BME280;48704;50.534;6.442;2022-07-23T08:55:31;95971.25;;;18.44;68.29
62634;BME280;48704;50.534;6.442;2022-07-23T08:57:57;95959.25;;;18.32;71.42
62634;BME280;48704;50.534;6.442;2022-07-23T09:00:23;95968.81;;;18.59;70.63
62634;BME280;48704;50.534;6.442;2022-07-23T09:02:49;95965.00;;;18.97;72.59
62634;BME280;48704;50.534;6.442;2022-07-23T09:05:16;95958.28;;;19.66;71.78
62634;BME280;48704;50.534;6.442;2022-07-23T09:08:11;95972.72;;;20.06;70.78
62634;BME280;48704;50.534;6.442;2022-07-23T09:10:55;95973.66;;;20.14;69.10
62634;BME280;48704;50.534;6.442;2022-07-23T09:21:15;95973.84;;;20.21;64.79
62634;BME280;48704;50.534;6.442;2022-07-23T09:26:35;95982.75;;;20.87;64.78
62634;BME280;48704;50.534;6.442;2022-07-23T09:29:20;95974.13;;;21.30;64.42
62634;BME280;48704;50.534;6.442;2022-07-23T09:31:51;95977.19;;;21.32;62.75
62634;BME280;48704;50.534;6.442;2022-07-23T09:36:45;95975.53;;;21.95;60.06
62634;BME280;48704;50.534;6.442;2022-07-23T09:39:12;95982.06;;;21.77;60.96
62634;BME280;48704;50.534;6.442;2022-07-23T09:41:43;95974.91;;;22.02;59.18
62634;BME280;48704;50.534;6.442;2022-07-23T09:44:17;95980.34;;;22.40;57.58
62634;BME280;48704;50.534;6.442;2022-07-23T09:46:46;95982.69;;;22.89;55.95
62634;BME280;48704;50.534;6.442;2022-07-23T09:49:18;95988.81;;;22.80;56.03
62634;BME280;48704;50.534;6.442;2022-07-23T09:51:55;95981.88;;;21.88;57.92
62634;BME280;48704;50.534;6.442;2022-07-23T09:54:36;95982.56;;;22.08;58.21
62634;BME280;48704;50.534;6.442;2022-07-23T09:59:35;95989.75;;;21.18;59.67
62634;BME280;48704;50.534;6.442;2022-07-23T10:02:03;95988.31;;;21.89;57.69
62634;BME280;48704;50.534;6.442;2022-07-23T10:04:30;95986.44;;;22.57;57.61
62634;BME280;48704;50.534;6.442;2022-07-23T10:07:01;95986.63;;;22.86;57.23
62634;BME280;48704;50.534;6.442;2022-07-23T10:09:40;95985.81;;;23.53;54.58
62634;BME280;48704;50.534;6.442;2022-07-23T10:12:15;95978.91;;;24.19;53.52
62634;BME280;48704;50.534;6.442;2022-07-23T10:14:47;95981.75;;;23.90;54.88
62634;BME280;48704;50.534;6.442;2022-07-23T10:17:13;95983.22;;;23.21;54.45
62634;BME280;48704;50.534;6.442;2022-07-23T10:19:39;95981.94;;;21.69;59.89
62634;BME280;48704;50.534;6.442;2022-07-23T10:22:10;95985.91;;;21.34;60.92
62634;BME280;48704;50.534;6.442;2022-07-23T10:33:56;95984.78;;;23.09;55.60
62634;BME280;48704;50.534;6.442;2022-07-23T10:39:15;95978.19;;;23.97;53.62
62634;BME280;48704;50.534;6.442;2022-07-23T10:41:43;95982.91;;;24.23;51.95
62634;BME280;48704;50.534;6.442;2022-07-23T10:44:15;95984.75;;;24.13;51.19
62634;BME280;48704;50.534;6.442;2022-07-23T10:47:01;95975.09;;;24.45;51.33
62634;BME280;48704;50.534;6.442;2022-07-23T10:49:45;95975.38;;;25.13;48.89
62634;BME280;48704;50.534;6.442;2022-07-23T10:54:57;95969.81;;;25.00;46.93
62634;BME280;48704;50.534;6.442;2022-07-23T10:57:49;95973.72;;;24.10;48.17
62634;BME280;48704;50.534;6.442;2022-07-23T11:02:45;95970.06;;;23.31;52.03
62634;BME280;48704;50.534;6.442;2022-07-23T11:05:16;95976.91;;;23.36;52.25
62634;BME280;48704;50.534;6.442;2022-07-23T11:10:39;95976.31;;;24.28;50.00
62634;BME280;48704;50.534;6.442;2022-07-23T11:32:06;95968.16;;;27.29;43.10
62634;BME280;48704;50.534;6.442;2022-07-23T11:34:42;95970.91;;;27.12;41.58
62634;BME280;48704;50.534;6.442;2022-07-23T11:37:11;95974.66;;;25.43;43.43
62634;BME280;48704;50.534;6.442;2022-07-23T11:39:37;95962.72;;;24.86;46.95
62634;BME280;48704;50.534;6.442;2022-07-23T11:42:05;95967.03;;;24.72;47.97
62634;BME280;48704;50.534;6.442;2022-07-23T11:44:33;95964.47;;;23.88;50.07
62634;BME280;48704;50.534;6.442;2022-07-23T11:47:05;95961.22;;;24.85;48.24
62634;BME280;48704;50.534;6.442;2022-07-23T11:49:31;95972.03;;;24.94;48.46
62634;BME280;48704;50.534;6.442;2022-07-23T11:54:31;95971.03;;;26.97;43.59
62634;BME280;48704;50.534;6.442;2022-07-23T11:56:57;95970.19;;;27.69;41.49
62634;BME280;48704;50.534;6.442;2022-07-23T11:59:24;95966.66;;;28.03;42.36
62634;BME280;48704;50.534;6.442;2022-07-23T12:02:02;95970.00;;;28.34;40.75
62634;BME280;48704;50.534;6.442;2022-07-23T12:07:23;95968.16;;;27.54;43.23
62634;BME280;48704;50.534;6.442;2022-07-23T12:09:49;95968.59;;;27.18;42.18
62634;BME280;48704;50.534;6.442;2022-07-23T12:12:14;95982.34;;;27.77;41.37
62634;BME280;48704;50.534;6.442;2022-07-23T12:14:55;95977.84;;;26.46;43.55
62634;BME280;48704;50.534;6.442;2022-07-23T12:17:28;95962.84;;;25.24;46.47
62634;BME280;48704;50.534;6.442;2022-07-23T12:19:56;95975.81;;;25.48;47.19
62634;BME280;48704;50.534;6.442;2022-07-23T12:22:24;95973.91;;;26.19;44.34
62634;BME280;48704;50.534;6.442;2022-07-23T12:25:02;95979.34;;;27.10;42.89
62634;BME280;48704;50.534;6.442;2022-07-23T12:27:29;95974.25;;;26.38;44.41
62634;BME280;48704;50.534;6.442;2022-07-23T12:29:55;95967.47;;;25.80;45.11
62634;BME280;48704;50.534;6.442;2022-07-23T12:32:26;95974.41;;;27.03;42.98
62634;BME280;48704;50.534;6.442;2022-07-23T12:37:33;95970.13;;;25.71;45.84
62634;BME280;48704;50.534;6.442;2022-07-23T12:40:18;95966.50;;;24.81;47.76
62634;BME280;48704;50.534;6.442;2022-07-23T12:42:46;95975.06;;;26.31;45.63
62634;BME280;48704;50.534;6.442;2022-07-23T12:45:12;95974.69;;;27.22;42.68
62634;BME280;48704;50.534;6.442;2022-07-23T12:48:03;95968.63;;;28.18;40.91
62634;BME280;48704;50.534;6.442;2022-07-23T12:51:04;95972.59;;;27.48;42.09
62634;BME280;48704;50.534;6.442;2022-07-23T12:53:31;95966.66;;;27.53;40.55
62634;BME280;48704;50.534;6.442;2022-07-23T12:56:22;95962.81;;;26.38;43.82
62634;BME280;48704;50.534;6.442;2022-07-23T13:01:23;95973.09;;;25.19;46.36
62634;BME280;48704;50.534;6.442;2022-07-23T13:06:21;95972.81;;;23.45;50.77
62634;BME280;48704;50.534;6.442;2022-07-23T13:08:47;95976.56;;;23.40;50.64
62634;BME280;48704;50.534;6.442;2022-07-23T13:11:12;95971.34;;;23.51;50.18
62634;BME280;48704;50.534;6.442;2022-07-23T13:13:38;95984.97;;;23.66;49.20
62634;BME280;48704;50.534;6.442;2022-07-23T13:16:04;95976.41;;;24.95;46.45
62634;BME280;48704;50.534;6.442;2022-07-23T13:18:31;95976.47;;;25.03;45.80
62634;BME280;48704;50.534;6.442;2022-07-23T13:20:57;95982.06;;;25.46;45.88
62634;BME280;48704;50.534;6.442;2022-07-23T13:23:23;95986.50;;;24.52;48.59
62634;BME280;48704;50.534;6.442;2022-07-23T13:25:49;95983.41;;;24.35;47.55
62634;BME280;48704;50.534;6.442;2022-07-23T13:28:16;95987.06;;;25.91;45.40
62634;BME280;48704;50.534;6.442;2022-07-23T13:30:42;95985.28;;;25.27;48.20
62634;BME280;48704;50.534;6.442;2022-07-23T13:33:08;95991.00;;;25.43;47.35
62634;BME280;48704;50.534;6.442;2022-07-23T13:35:35;95986.91;;;27.15;42.82
62634;BME280;48704;50.534;6.442;2022-07-23T13:38:02;95980.94;;;27.61;42.34
62634;BME280;48704;50.534;6.442;2022-07-23T13:40:28;95987.28;;;27.19;41.70
62634;BME280;48704;50.534;6.442;2022-07-23T13:42:54;95975.75;;;27.35;41.11
62634;BME280;48704;50.534;6.442;2022-07-23T13:45:20;95978.28;;;27.55;40.86
62634;BME280;48704;50.534;6.442;2022-07-23T13:47:46;95982.13;;;26.78;41.27
62634;BME280;48704;50.534;6.442;2022-07-23T13:50:11;95975.97;;;28.80;36.54
62634;BME280;48704;50.534;6.442;2022-07-23T13:52:47;95973.38;;;29.63;36.06
62634;BME280;48704;50.534;6.442;2022-07-23T13:55:13;95967.69;;;29.82;36.02
62634;BME280;48704;50.534;6.442;2022-07-23T13:57:38;95976.59;;;28.96;37.84
62634;BME280;48704;50.534;6.442;2022-07-23T14:00:06;95972.78;;;30.01;35.29
62634;BME280;48704;50.534;6.442;2022-07-23T14:02:33;95975.75;;;27.35;39.06
62634;BME280;48704;50.534;6.442;2022-07-23T14:05:00;95981.75;;;28.04;38.68